sensor_id;sensor_type;location;lat;lon;timestamp;pressure;altitude;pressure_sealevel;temperature;humidity
43119;BME280;28729;49.838;8.650;2023-07-31T00:00:52;99639.31;;;18.20;89.69
43119;BME280;28729;49.838;8.650;2023-07-31T00:04:54;99646.13;;;18.14;91.16
43119;BME280;28729;49.838;8.650;2023-07-31T00:08:56;99634.47;;;18.12;91.09
43119;BME280;28729;49.838;8.650;2023-07-31T00:12:57;99640.66;;;18.09;90.88
43119;BME280;28729;49.838;8.650;2023-07-31T00:16:59;99640.94;;;18.07;93.67
43119;BME280;28729;49.838;8.650;2023-07-31T00:21:01;99626.47;;;18.05;93.93
43119;BME280;28729;49.838;8.650;2023-07-31T00:25:03;99634.94;;;18.00;94.38
43119;BME280;28729;49.838;8.650;2023-07-31T00:29:08;99627.06;;;18.02;94.14
43119;BME280;28729;49.838;8.650;2023-07-31T00:33:11;99632.66;;;18.02;93.22
43119;BME280;28729;49.838;8.650;2023-07-31T00:37:13;99622.56;;;18.06;91.47
43119;BME280;28729;49.838;8.650;2023-07-31T00:41:15;99634.97;;;18.14;90.65
43119;BME280;28729;49.838;8.650;2023-07-31T00:45:17;99624.06;;;18.17;88.84
43119;BME280;28729;49.838;8.650;2023-07-31T00:49:20;99620.06;;;18.24;88.24
43119;BME280;28729;49.838;8.650;2023-07-31T00:53:24;99602.09;;;18.30;87.51
43119;BME280;28729;49.838;8.650;2023-07-31T00:57:26;99608.69;;;18.34;86.65
43119;BME280;28729;49.838;8.650;2023-07-31T01:01:28;99610.66;;;18.33;85.73
43119;BME280;28729;49.838;8.650;2023-07-31T01:05:46;99589.09;;;18.39;85.05
43119;BME280;28729;49.838;8.650;2023-07-31T01:10:00;99610.78;;;18.42;84.07
43119;BME280;28729;49.838;8.650;2023-07-31T01:14:04;99605.09;;;18.47;83.88
43119;BME280;28729;49.838;8.650;2023-07-31T01:18:06;99600.03;;;18.49;82.54
43119;BME280;28729;49.838;8.650;2023-07-31T01:22:24;99606.38;;;18.55;82.21
43119;BME280;28729;49.838;8.650;2023-07-31T01:26:36;99608.31;;;18.54;81.12
43119;BME280;28729;49.838;8.650;2023-07-31T01:30:44;99606.38;;;18.55;80.75
43119;BME280;28729;49.838;8.650;2023-07-31T01:34:49;99594.91;;;18.56;80.75
43119;BME280;28729;49.838;8.650;2023-07-31T01:38:52;99596.75;;;18.61;81.23
43119;BME280;28729;49.838;8.650;2023-07-31T01:42:59;99594.78;;;18.61;81.41
43119;BME280;28729;49.838;8.650;2023-07-31T01:47:03;99597.91;;;18.60;81.35
43119;BME280;28729;49.838;8.650;2023-07-31T01:51:05;99588.72;;;18.59;81.49
43119;BME280;28729;49.838;8.650;2023-07-31T01:55:07;99580.44;;;18.54;81.24
43119;BME280;28729;49.838;8.650;2023-07-31T01:59:08;99562.34;;;18.52;81.94
43119;BME280;28729;49.838;8.650;2023-07-31T02:03:10;99556.84;;;18.47;82.39
43119;BME280;28729;49.838;8.650;2023-07-31T02:07:12;99562.75;;;18.45;82.43
43119;BME280;28729;49.838;8.650;2023-07-31T02:11:14;99556.97;;;18.41;82.46
43119;BME280;28729;49.838;8.650;2023-07-31T02:15:16;99559.22;;;18.39;83.38
43119;BME280;28729;49.838;8.650;2023-07-31T02:19:18;99559.22;;;18.39;83.05
43119;BME280;28729;49.838;8.650;2023-07-31T02:23:20;99545.69;;;18.33;83.19
43119;BME280;28729;49.838;8.650;2023-07-31T02:27:22;99542.91;;;18.33;83.67
43119;BME280;28729;49.838;8.650;2023-07-31T02:31:26;99536.88;;;18.26;84.13
43119;BME280;28729;49.838;8.650;2023-07-31T02:35:28;99532.25;;;18.21;85.03
43119;BME280;28729;49.838;8.650;2023-07-31T02:39:30;99530.34;;;18.16;85.75
43119;BME280;28729;49.838;8.650;2023-07-31T02:43:34;99534.28;;;18.15;85.89
43119;BME280;28729;49.838;8.650;2023-07-31T02:47:36;99539.94;;;18.10;87.02
43119;BME280;28729;49.838;8.650;2023-07-31T02:51:38;99539.53;;;18.03;87.63
43119;BME280;28729;49.838;8.650;2023-07-31T02:55:40;99540.75;;;17.97;88.57
43119;BME280;28729;49.838;8.650;2023-07-31T02:59:42;99538.06;;;17.92;89.10
43119;BME280;28729;49.838;8.650;2023-07-31T03:03:44;99539.28;;;17.86;90.55
43119;BME280;28729;49.838;8.650;2023-07-31T03:07:46;99540.50;;;17.80;90.99
43119;BME280;28729;49.838;8.650;2023-07-31T03:11:47;99540.84;;;17.73;91.75
43119;BME280;28729;49.838;8.650;2023-07-31T03:15:50;99547.25;;;17.73;91.71
43119;BME280;28729;49.838;8.650;2023-07-31T03:19:52;99552.84;;;17.73;91.58
43119;BME280;28729;49.838;8.650;2023-07-31T03:23:53;99557.59;;;17.73;91.08
43119;BME280;28729;49.838;8.650;2023-07-31T03:27:55;99547.75;;;17.75;90.54
43119;BME280;28729;49.838;8.650;2023-07-31T03:31:57;99548.38;;;17.72;91.81
43119;BME280;28729;49.838;8.650;2023-07-31T03:36:01;99548.22;;;17.64;95.37
43119;BME280;28729;49.838;8.650;2023-07-31T03:40:04;99546.22;;;17.50;98.47
43119;BME280;28729;49.838;8.650;2023-07-31T03:44:06;99538.84;;;17.41;100.00
43119;BME280;28729;49.838;8.650;2023-07-31T03:48:09;99537.34;;;17.29;100.00
43119;BME280;28729;49.838;8.650;2023-07-31T03:52:11;99540.56;;;17.18;100.00
43119;BME280;28729;49.838;8.650;2023-07-31T03:56:13;99542.66;;;17.07;100.00
43119;BME280;28729;49.838;8.650;2023-07-31T04:00:15;99536.13;;;16.98;100.00
43119;BME280;28729;49.838;8.650;2023-07-31T04:04:16;99540.63;;;16.94;100.00
43119;BME280;28729;49.838;8.650;2023-07-31T04:08:18;99540.69;;;16.89;100.00
43119;BME280;28729;49.838;8.650;2023-07-31T04:12:20;99545.97;;;16.90;100.00
43119;BME280;28729;49.838;8.650;2023-07-31T04:16:22;99544.00;;;16.91;100.00
43119;BME280;28729;49.838;8.650;2023-07-31T04:20:23;99541.16;;;16.96;100.00
43119;BME280;28729;49.838;8.650;2023-07-31T04:24:25;99533.03;;;16.99;100.00
43119;BME280;28729;49.838;8.650;2023-07-31T04:28:27;99533.00;;;17.04;100.00
43119;BME280;28729;49.838;8.650;2023-07-31T04:32:29;99530.09;;;17.09;100.00
43119;BME280;28729;49.838;8.650;2023-07-31T04:36:31;99534.19;;;17.17;100.00
43119;BME280;28729;49.838;8.650;2023-07-31T04:40:33;99532.44;;;17.21;100.00
43119;BME280;28729;49.838;8.650;2023-07-31T04:44:35;99525.16;;;17.25;100.00
43119;BME280;28729;49.838;8.650;2023-07-31T04:48:36;99527.34;;;17.28;100.00
43119;BME280;28729;49.838;8.650;2023-07-31T04:52:39;99528.31;;;17.38;100.00
43119;BME280;28729;49.838;8.650;2023-07-31T04:56:41;99524.94;;;17.41;99.57
43119;BME280;28729;49.838;8.650;2023-07-31T05:00:42;99522.56;;;17.48;99.93
43119;BME280;28729;49.838;8.650;2023-07-31T05:04:44;99514.44;;;17.51;99.07
43119;BME280;28729;49.838;8.650;2023-07-31T05:08:47;99523.03;;;17.55;97.82
43119;BME280;28729;49.838;8.650;2023-07-31T05:12:48;99507.56;;;17.63;97.13
43119;BME280;28729;49.838;8.650;2023-07-31T05:16:50;99509.69;;;17.71;95.53
43119;BME280;28729;49.838;8.650;2023-07-31T05:20:52;99500.88;;;17.83;95.14
43119;BME280;28729;49.838;8.650;2023-07-31T05:24:54;99518.00;;;17.90;93.53
43119;BME280;28729;49.838;8.650;2023-07-31T05:28:55;99512.34;;;17.95;93.28
43119;BME280;28729;49.838;8.650;2023-07-31T05:32:57;99500.50;;;18.03;92.36
43119;BME280;28729;49.838;8.650;2023-07-31T05:36:59;99506.50;;;18.10;91.41
43119;BME280;28729;49.838;8.650;2023-07-31T05:41:01;99506.81;;;18.22;92.15
43119;BME280;28729;49.838;8.650;2023-07-31T05:45:04;99506.53;;;18.24;90.60
43119;BME280;28729;49.838;8.650;2023-07-31T05:49:06;99501.56;;;18.35;90.29
43119;BME280;28729;49.838;8.650;2023-07-31T05:53:08;99505.91;;;18.41;89.69
43119;BME280;28729;49.838;8.650;2023-07-31T05:57:11;99501.38;;;18.45;88.99
43119;BME280;28729;49.838;8.650;2023-07-31T06:01:15;99506.34;;;18.48;90.02
43119;BME280;28729;49.838;8.650;2023-07-31T06:05:17;99495.16;;;18.48;89.11
43119;BME280;28729;49.838;8.650;2023-07-31T06:09:19;99507.44;;;18.47;88.92
43119;BME280;28729;49.838;8.650;2023-07-31T06:13:21;99493.94;;;18.54;88.79
43119;BME280;28729;49.838;8.650;2023-07-31T06:17:23;99485.56;;;18.68;88.77
43119;BME280;28729;49.838;8.650;2023-07-31T06:21:25;99500.22;;;18.87;87.09
43119;BME280;28729;49.838;8.650;2023-07-31T06:25:27;99492.31;;;19.03;86.27
43119;BME280;28729;49.838;8.650;2023-07-31T06:29:29;99480.63;;;19.15;85.13
43119;BME280;28729;49.838;8.650;2023-07-31T06:33:32;99487.50;;;19.31;84.99
43119;BME280;28729;49.838;8.650;2023-07-31T06:37:34;99481.28;;;19.57;84.40
43119;BME280;28729;49.838;8.650;2023-07-31T06:41:38;99490.28;;;19.68;81.99
43119;BME280;28729;49.838;8.650;2023-07-31T06:45:44;99490.78;;;19.70;81.89
43119;BME280;28729;49.838;8.650;2023-07-31T06:49:47;99483.59;;;19.55;81.78
43119;BME280;28729;49.838;8.650;2023-07-31T06:53:49;99493.16;;;19.40;82.78
43119;BME280;28729;49.838;8.650;2023-07-31T06:57:52;99491.00;;;19.37;83.46
43119;BME280;28729;49.838;8.650;2023-07-31T07:01:54;99496.41;;;19.33;82.96
43119;BME280;28729;49.838;8.650;2023-07-31T07:05:59;99493.41;;;19.30;83.72
43119;BME280;28729;49.838;8.650;2023-07-31T07:10:01;99487.94;;;19.47;84.30
43119;BME280;28729;49.838;8.650;2023-07-31T07:14:03;99491.63;;;20.01;82.48
43119;BME280;28729;49.838;8.650;2023-07-31T07:18:05;99484.66;;;20.53;79.02
43119;BME280;28729;49.838;8.650;2023-07-31T07:22:07;99475.22;;;20.97;75.55
43119;BME280;28729;49.838;8.650;2023-07-31T07:26:09;99468.78;;;20.97;73.72
43119;BME280;28729;49.838;8.650;2023-07-31T07:30:11;99470.09;;;20.90;74.02
43119;BME280;28729;49.838;8.650;2023-07-31T07:34:13;99468.31;;;20.94;74.25
43119;BME280;28729;49.838;8.650;2023-07-31T07:38:15;99462.19;;;20.84;74.16
43119;BME280;28729;49.838;8.650;2023-07-31T07:42:18;99467.47;;;21.03;74.79
43119;BME280;28729;49.838;8.650;2023-07-31T07:46:19;99456.09;;;21.08;74.06
43119;BME280;28729;49.838;8.650;2023-07-31T07:50:21;99464.34;;;21.04;74.49
43119;BME280;28729;49.838;8.650;2023-07-31T07:54:23;99452.81;;;21.06;74.71
43119;BME280;28729;49.838;8.650;2023-07-31T07:58:25;99447.53;;;20.96;74.93
43119;BME280;28729;49.838;8.650;2023-07-31T08:02:27;99443.41;;;20.93;75.85
43119;BME280;28729;49.838;8.650;2023-07-31T08:06:29;99444.75;;;21.13;74.76
43119;BME280;28729;49.838;8.650;2023-07-31T08:10:31;99442.63;;;21.36;74.26
43119;BME280;28729;49.838;8.650;2023-07-31T08:14:33;99441.75;;;21.70;73.13
43119;BME280;28729;49.838;8.650;2023-07-31T08:18:35;99438.97;;;21.61;73.10
43119;BME280;28729;49.838;8.650;2023-07-31T08:22:37;99431.44;;;21.45;74.96
43119;BME280;28729;49.838;8.650;2023-07-31T08:26:39;99420.00;;;21.67;74.93
43119;BME280;28729;49.838;8.650;2023-07-31T08:30:41;99423.75;;;21.71;73.30
43119;BME280;28729;49.838;8.650;2023-07-31T08:34:43;99410.06;;;21.78;74.20
43119;BME280;28729;49.838;8.650;2023-07-31T08:38:46;99413.50;;;21.93;71.99
43119;BME280;28729;49.838;8.650;2023-07-31T08:42:49;99395.97;;;22.04;71.73
43119;BME280;28729;49.838;8.650;2023-07-31T08:46:51;99401.50;;;22.22;70.80
43119;BME280;28729;49.838;8.650;2023-07-31T08:50:54;99392.31;;;22.42;70.21
43119;BME280;28729;49.838;8.650;2023-07-31T08:54:56;99387.91;;;22.33;68.90
43119;BME280;28729;49.838;8.650;2023-07-31T08:58:58;99392.13;;;22.47;67.85
43119;BME280;28729;49.838;8.650;2023-07-31T09:03:08;99395.56;;;22.53;67.41
43119;BME280;28729;49.838;8.650;2023-07-31T09:07:12;99396.41;;;22.74;67.65
43119;BME280;28729;49.838;8.650;2023-07-31T09:11:16;99395.53;;;22.83;67.37
43119;BME280;28729;49.838;8.650;2023-07-31T09:15:18;99389.66;;;22.75;67.68
43119;BME280;28729;49.838;8.650;2023-07-31T09:19:37;99382.88;;;22.97;66.01
43119;BME280;28729;49.838;8.650;2023-07-31T09:23:40;99384.25;;;23.46;63.10
43119;BME280;28729;49.838;8.650;2023-07-31T09:27:50;99396.59;;;23.53;62.05
43119;BME280;28729;49.838;8.650;2023-07-31T09:31:53;99392.72;;;23.25;63.07
43119;BME280;28729;49.838;8.650;2023-07-31T09:35:58;99388.13;;;23.20;63.25
43119;BME280;28729;49.838;8.650;2023-07-31T09:40:00;99375.28;;;23.31;61.99
43119;BME280;28729;49.838;8.650;2023-07-31T09:44:02;99365.81;;;23.69;61.84
43119;BME280;28729;49.838;8.650;2023-07-31T09:48:08;99367.38;;;23.79;60.72
43119;BME280;28729;49.838;8.650;2023-07-31T09:52:13;99367.09;;;23.59;60.16
43119;BME280;28729;49.838;8.650;2023-07-31T09:56:16;99359.56;;;23.51;58.97
43119;BME280;28729;49.838;8.650;2023-07-31T10:00:19;99340.56;;;23.48;59.12
43119;BME280;28729;49.838;8.650;2023-07-31T10:04:27;99357.94;;;23.62;59.70
43119;BME280;28729;49.838;8.650;2023-07-31T10:08:32;99346.03;;;23.78;60.04
43119;BME280;28729;49.838;8.650;2023-07-31T10:12:38;99336.09;;;24.29;59.26
43119;BME280;28729;49.838;8.650;2023-07-31T10:16:40;99328.19;;;24.72;57.00
43119;BME280;28729;49.838;8.650;2023-07-31T10:20:44;99317.44;;;25.46;56.85
43119;BME280;28729;49.838;8.650;2023-07-31T10:24:46;99325.88;;;25.90;53.71
43119;BME280;28729;49.838;8.650;2023-07-31T10:28:49;99306.34;;;25.69;52.68
43119;BME280;28729;49.838;8.650;2023-07-31T10:32:52;99309.84;;;26.10;52.73
43119;BME280;28729;49.838;8.650;2023-07-31T10:41:29;99306.13;;;26.57;49.47
43119;BME280;28729;49.838;8.650;2023-07-31T10:49:38;99314.59;;;25.46;52.31
43119;BME280;28729;49.838;8.650;2023-07-31T10:53:40;99305.75;;;25.04;54.88
43119;BME280;28729;49.838;8.650;2023-07-31T10:57:47;99321.75;;;25.56;52.44
43119;BME280;28729;49.838;8.650;2023-07-31T11:01:54;99306.44;;;25.57;50.67
43119;BME280;28729;49.838;8.650;2023-07-31T11:05:59;99297.53;;;25.71;49.66
43119;BME280;28729;49.838;8.650;2023-07-31T11:10:02;99304.72;;;25.68;50.14
43119;BME280;28729;49.838;8.650;2023-07-31T11:14:04;99297.91;;;25.25;49.67
43119;BME280;28729;49.838;8.650;2023-07-31T11:18:06;99305.66;;;24.60;51.96
43119;BME280;28729;49.838;8.650;2023-07-31T11:22:10;99307.25;;;24.20;53.54
43119;BME280;28729;49.838;8.650;2023-07-31T11:26:12;99309.56;;;23.69;54.91
43119;BME280;28729;49.838;8.650;2023-07-31T11:30:14;99326.50;;;23.48;56.97
43119;BME280;28729;49.838;8.650;2023-07-31T11:34:15;99311.03;;;23.42;57.73
43119;BME280;28729;49.838;8.650;2023-07-31T11:38:30;99309.16;;;23.46;59.28
43119;BME280;28729;49.838;8.650;2023-07-31T11:42:32;99306.75;;;23.69;58.45
43119;BME280;28729;49.838;8.650;2023-07-31T11:46:35;99297.88;;;23.92;59.09
43119;BME280;28729;49.838;8.650;2023-07-31T11:50:37;99288.84;;;23.98;58.67
43119;BME280;28729;49.838;8.650;2023-07-31T11:54:40;99270.19;;;24.06;58.93
43119;BME280;28729;49.838;8.650;2023-07-31T11:58:42;99278.19;;;23.92;59.77
43119;BME280;28729;49.838;8.650;2023-07-31T12:02:47;99277.59;;;23.86;59.62
43119;BME280;28729;49.838;8.650;2023-07-31T12:06:49;99279.66;;;23.64;61.35
43119;BME280;28729;49.838;8.650;2023-07-31T12:10:52;99270.16;;;23.69;62.19
43119;BME280;28729;49.838;8.650;2023-07-31T12:14:54;99259.50;;;24.11;60.29
43119;BME280;28729;49.838;8.650;2023-07-31T12:18:56;99260.31;;;24.37;59.58
43119;BME280;28729;49.838;8.650;2023-07-31T12:22:58;99244.47;;;24.44;58.85
43119;BME280;28729;49.838;8.650;2023-07-31T12:27:00;99239.00;;;24.11;59.38
43119;BME280;28729;49.838;8.650;2023-07-31T12:31:02;99237.47;;;23.64;61.77
43119;BME280;28729;49.838;8.650;2023-07-31T12:35:06;99235.53;;;23.19;62.67
43119;BME280;28729;49.838;8.650;2023-07-31T12:39:08;99234.50;;;22.91;64.29
43119;BME280;28729;49.838;8.650;2023-07-31T12:43:10;99233.88;;;22.73;65.28
43119;BME280;28729;49.838;8.650;2023-07-31T12:47:11;99233.72;;;22.69;65.56
43119;BME280;28729;49.838;8.650;2023-07-31T12:51:13;99220.09;;;22.59;67.19
43119;BME280;28729;49.838;8.650;2023-07-31T12:55:15;99216.47;;;22.59;66.53
43119;BME280;28729;49.838;8.650;2023-07-31T12:59:17;99208.88;;;22.59;65.92
43119;BME280;28729;49.838;8.650;2023-07-31T13:03:19;99201.19;;;22.68;65.24
43119;BME280;28729;49.838;8.650;2023-07-31T13:07:22;99196.81;;;22.92;64.33
43119;BME280;28729;49.838;8.650;2023-07-31T13:11:24;99205.34;;;23.29;63.52
43119;BME280;28729;49.838;8.650;2023-07-31T13:15:25;99188.69;;;23.97;61.71
43119;BME280;28729;49.838;8.650;2023-07-31T13:19:27;99184.38;;;24.96;57.78
43119;BME280;28729;49.838;8.650;2023-07-31T13:23:29;99181.16;;;25.42;54.67
43119;BME280;28729;49.838;8.650;2023-07-31T13:27:31;99177.00;;;25.87;53.50
43119;BME280;28729;49.838;8.650;2023-07-31T13:31:33;99179.69;;;25.99;52.07
43119;BME280;28729;49.838;8.650;2023-07-31T13:35:35;99183.22;;;25.45;53.00
43119;BME280;28729;49.838;8.650;2023-07-31T13:39:37;99188.34;;;24.79;54.94
43119;BME280;28729;49.838;8.650;2023-07-31T13:43:39;99177.81;;;24.36;56.39
43119;BME280;28729;49.838;8.650;2023-07-31T13:47:40;99176.97;;;24.07;58.42
43119;BME280;28729;49.838;8.650;2023-07-31T13:51:42;99185.31;;;23.79;59.28
43119;BME280;28729;49.838;8.650;2023-07-31T13:55:44;99172.09;;;23.43;60.56
43119;BME280;28729;49.838;8.650;2023-07-31T13:59:47;99174.53;;;23.20;62.88
43119;BME280;28729;49.838;8.650;2023-07-31T14:03:49;99179.91;;;23.01;63.16
43119;BME280;28729;49.838;8.650;2023-07-31T14:07:51;99189.56;;;22.91;63.45
43119;BME280;28729;49.838;8.650;2023-07-31T14:11:53;99176.66;;;22.90;63.47
43119;BME280;28729;49.838;8.650;2023-07-31T14:15:54;99167.91;;;22.91;63.88
43119;BME280;28729;49.838;8.650;2023-07-31T14:19:56;99158.88;;;22.86;63.80
43119;BME280;28729;49.838;8.650;2023-07-31T14:23:58;99158.63;;;22.79;64.16
43119;BME280;28729;49.838;8.650;2023-07-31T14:28:00;99149.13;;;22.71;64.83
43119;BME280;28729;49.838;8.650;2023-07-31T14:32:02;99148.19;;;22.67;65.87
43119;BME280;28729;49.838;8.650;2023-07-31T14:36:04;99143.72;;;22.66;66.51
43119;BME280;28729;49.838;8.650;2023-07-31T14:40:15;99144.09;;;22.64;67.03
43119;BME280;28729;49.838;8.650;2023-07-31T14:44:17;99134.69;;;22.60;66.70
43119;BME280;28729;49.838;8.650;2023-07-31T14:48:19;99135.38;;;22.57;66.40
43119;BME280;28729;49.838;8.650;2023-07-31T14:52:20;99128.34;;;22.51;66.12
43119;BME280;28729;49.838;8.650;2023-07-31T14:56:22;99116.44;;;22.66;65.59
43119;BME280;28729;49.838;8.650;2023-07-31T15:00:24;99127.84;;;22.82;65.22
43119;BME280;28729;49.838;8.650;2023-07-31T15:04:26;99128.78;;;22.74;65.51
43119;BME280;28729;49.838;8.650;2023-07-31T15:08:27;99125.94;;;22.62;65.67
43119;BME280;28729;49.838;8.650;2023-07-31T15:12:29;99123.56;;;22.51;66.41
43119;BME280;28729;49.838;8.650;2023-07-31T15:16:32;99136.53;;;22.44;66.51
43119;BME280;28729;49.838;8.650;2023-07-31T15:20:33;99135.78;;;22.35;67.14
43119;BME280;28729;49.838;8.650;2023-07-31T15:24:35;99116.72;;;22.28;67.84
43119;BME280;28729;49.838;8.650;2023-07-31T15:28:37;99118.94;;;22.35;67.91
43119;BME280;28729;49.838;8.650;2023-07-31T15:32:40;99127.22;;;22.52;67.16
43119;BME280;28729;49.838;8.650;2023-07-31T15:36:42;99119.25;;;22.66;66.64
43119;BME280;28729;49.838;8.650;2023-07-31T15:40:44;99120.34;;;22.74;65.65
43119;BME280;28729;49.838;8.650;2023-07-31T15:44:46;99117.16;;;22.63;66.47
43119;BME280;28729;49.838;8.650;2023-07-31T15:48:49;99127.31;;;22.56;65.97
43119;BME280;28729;49.838;8.650;2023-07-31T15:52:50;99129.03;;;22.48;64.92
43119;BME280;28729;49.838;8.650;2023-07-31T15:56:52;99133.03;;;22.47;63.85
43119;BME280;28729;49.838;8.650;2023-07-31T16:00:55;99118.31;;;22.50;63.25
43119;BME280;28729;49.838;8.650;2023-07-31T16:04:57;99128.88;;;22.65;63.48
43119;BME280;28729;49.838;8.650;2023-07-31T16:08:59;99127.00;;;22.69;63.70
43119;BME280;28729;49.838;8.650;2023-07-31T16:13:00;99125.75;;;22.79;64.05
43119;BME280;28729;49.838;8.650;2023-07-31T16:17:02;99113.00;;;22.82;63.65
43119;BME280;28729;49.838;8.650;2023-07-31T16:21:08;99117.22;;;22.75;65.98
43119;BME280;28729;49.838;8.650;2023-07-31T16:25:09;99105.69;;;22.56;67.80
43119;BME280;28729;49.838;8.650;2023-07-31T16:29:11;99109.84;;;22.38;71.31
43119;BME280;28729;49.838;8.650;2023-07-31T16:33:13;99110.13;;;22.03;76.92
43119;BME280;28729;49.838;8.650;2023-07-31T16:37:17;99106.16;;;21.62;82.28
43119;BME280;28729;49.838;8.650;2023-07-31T16:46:09;99102.78;;;20.80;92.85
43119;BME280;28729;49.838;8.650;2023-07-31T16:50:11;99097.91;;;20.42;97.14
43119;BME280;28729;49.838;8.650;2023-07-31T16:54:13;99081.69;;;20.09;100.00
43119;BME280;28729;49.838;8.650;2023-07-31T16:58:15;99072.84;;;19.81;100.00
43119;BME280;28729;49.838;8.650;2023-07-31T17:02:17;99074.47;;;19.65;100.00
43119;BME280;28729;49.838;8.650;2023-07-31T17:06:20;99055.69;;;19.56;100.00
43119;BME280;28729;49.838;8.650;2023-07-31T17:10:23;99065.22;;;19.47;100.00
43119;BME280;28729;49.838;8.650;2023-07-31T17:14:25;99055.50;;;19.35;100.00
43119;BME280;28729;49.838;8.650;2023-07-31T17:18:28;99059.56;;;19.21;100.00
43119;BME280;28729;49.838;8.650;2023-07-31T17:22:30;99059.38;;;19.08;100.00
43119;BME280;28729;49.838;8.650;2023-07-31T17:26:49;99065.44;;;18.93;100.00
43119;BME280;28729;49.838;8.650;2023-07-31T17:30:51;99050.44;;;18.80;100.00
43119;BME280;28729;49.838;8.650;2023-07-31T17:34:52;99052.03;;;18.73;100.00
43119;BME280;28729;49.838;8.650;2023-07-31T17:38:54;99052.50;;;18.66;100.00
43119;BME280;28729;49.838;8.650;2023-07-31T17:42:56;99051.31;;;18.58;100.00
43119;BME280;28729;49.838;8.650;2023-07-31T17:46:58;99046.69;;;18.54;100.00
43119;BME280;28729;49.838;8.650;2023-07-31T17:51:00;99039.28;;;18.49;100.00
43119;BME280;28729;49.838;8.650;2023-07-31T17:55:02;99043.88;;;18.45;100.00
43119;BME280;28729;49.838;8.650;2023-07-31T17:59:05;99038.28;;;18.45;100.00
43119;BME280;28729;49.838;8.650;2023-07-31T18:03:07;99017.09;;;18.44;100.00
43119;BME280;28729;49.838;8.650;2023-07-31T18:07:10;98994.31;;;18.42;100.00
43119;BME280;28729;49.838;8.650;2023-07-31T18:11:12;98987.06;;;18.41;100.00
43119;BME280;28729;49.838;8.650;2023-07-31T18:15:16;98984.59;;;18.39;100.00
43119;BME280;28729;49.838;8.650;2023-07-31T18:19:18;98986.88;;;18.37;100.00
43119;BME280;28729;49.838;8.650;2023-07-31T18:23:20;98987.69;;;18.38;100.00
43119;BME280;28729;49.838;8.650;2023-07-31T18:27:21;98991.66;;;18.37;100.00
43119;BME280;28729;49.838;8.650;2023-07-31T18:31:25;98992.81;;;18.36;100.00
43119;BME280;28729;49.838;8.650;2023-07-31T18:35:27;98989.38;;;18.39;100.00
43119;BME280;28729;49.838;8.650;2023-07-31T18:39:30;99000.19;;;18.40;100.00
43119;BME280;28729;49.838;8.650;2023-07-31T18:43:32;99003.78;;;18.41;100.00
43119;BME280;28729;49.838;8.650;2023-07-31T18:47:34;98998.03;;;18.37;100.00
43119;BME280;28729;49.838;8.650;2023-07-31T18:51:36;99002.16;;;18.40;100.00
43119;BME280;28729;49.838;8.650;2023-07-31T18:55:43;98993.78;;;18.40;100.00
43119;BME280;28729;49.838;8.650;2023-07-31T18:59:45;98995.13;;;18.42;100.00
43119;BME280;28729;49.838;8.650;2023-07-31T19:04:07;98985.41;;;18.40;100.00
43119;BME280;28729;49.838;8.650;2023-07-31T19:08:13;98998.69;;;18.34;100.00
43119;BME280;28729;49.838;8.650;2023-07-31T19:12:28;98993.09;;;18.34;100.00
43119;BME280;28729;49.838;8.650;2023-07-31T19:16:38;99006.75;;;18.36;100.00
43119;BME280;28729;49.838;8.650;2023-07-31T19:20:42;98999.03;;;18.33;100.00
43119;BME280;28729;49.838;8.650;2023-07-31T19:24:44;98989.84;;;18.32;100.00
43119;BME280;28729;49.838;8.650;2023-07-31T19:28:49;98988.34;;;18.35;100.00
43119;BME280;28729;49.838;8.650;2023-07-31T19:32:52;98995.59;;;18.36;100.00
43119;BME280;28729;49.838;8.650;2023-07-31T19:36:53;99002.44;;;18.30;100.00
43119;BME280;28729;49.838;8.650;2023-07-31T19:40:58;98997.06;;;18.33;100.00
43119;BME280;28729;49.838;8.650;2023-07-31T19:45:03;98988.69;;;18.33;100.00
43119;BME280;28729;49.838;8.650;2023-07-31T19:49:05;98973.41;;;18.31;100.00
43119;BME280;28729;49.838;8.650;2023-07-31T19:53:07;98976.19;;;18.31;100.00
43119;BME280;28729;49.838;8.650;2023-07-31T19:57:08;98966.84;;;18.27;100.00
43119;BME280;28729;49.838;8.650;2023-07-31T20:01:10;98957.31;;;18.28;100.00
43119;BME280;28729;49.838;8.650;2023-07-31T20:05:12;98950.94;;;18.27;100.00
43119;BME280;28729;49.838;8.650;2023-07-31T20:09:14;98955.69;;;18.27;100.00
43119;BME280;28729;49.838;8.650;2023-07-31T20:13:16;98949.13;;;18.31;100.00
43119;BME280;28729;49.838;8.650;2023-07-31T20:17:19;98939.81;;;18.36;100.00
43119;BME280;28729;49.838;8.650;2023-07-31T20:21:21;98937.50;;;18.38;100.00
43119;BME280;28729;49.838;8.650;2023-07-31T20:25:23;98940.78;;;18.40;100.00
43119;BME280;28729;49.838;8.650;2023-07-31T20:29:24;98934.72;;;18.38;100.00
43119;BME280;28729;49.838;8.650;2023-07-31T20:33:26;98943.22;;;18.24;100.00
43119;BME280;28729;49.838;8.650;2023-07-31T20:37:28;98938.06;;;18.09;100.00
43119;BME280;28729;49.838;8.650;2023-07-31T20:41:31;98922.75;;;17.97;100.00
43119;BME280;28729;49.838;8.650;2023-07-31T20:45:33;98903.84;;;17.86;100.00
43119;BME280;28729;49.838;8.650;2023-07-31T20:49:39;98887.34;;;17.75;100.00
43119;BME280;28729;49.838;8.650;2023-07-31T20:53:41;98884.72;;;17.70;100.00
43119;BME280;28729;49.838;8.650;2023-07-31T20:57:43;98879.28;;;17.65;100.00
43119;BME280;28729;49.838;8.650;2023-07-31T21:01:45;98866.63;;;17.59;100.00
43119;BME280;28729;49.838;8.650;2023-07-31T21:05:51;98851.81;;;17.50;100.00
43119;BME280;28729;49.838;8.650;2023-07-31T21:09:53;98857.00;;;17.43;100.00
43119;BME280;28729;49.838;8.650;2023-07-31T21:13:55;98858.28;;;17.37;100.00
43119;BME280;28729;49.838;8.650;2023-07-31T21:18:03;98863.38;;;17.35;100.00
43119;BME280;28729;49.838;8.650;2023-07-31T21:22:05;98858.75;;;17.30;100.00
43119;BME280;28729;49.838;8.650;2023-07-31T21:26:07;98844.13;;;17.24;100.00
43119;BME280;28729;49.838;8.650;2023-07-31T21:30:09;98833.44;;;17.18;100.00
43119;BME280;28729;49.838;8.650;2023-07-31T21:34:11;98832.75;;;17.12;100.00